Newark, CA

12:33 PM PDT on July 29, 2016 (GMT -0700)
Newark | | Change Station

Elev 13 ft 37.54 °N, 122.05 °W | Updated 8 seconds ago

Clear
Clear
77.2 °F
Feels Like 79 °F
N
3.4
Wind Variable Wind from NNW
Gusts 4.9 mph

Today
High -- | Low -- °F
--% Chance of Precip.
Yesterday
High -- | Low -- °F
Precip. -- in
Pressure 29.85 in
Visibility 10.0 miles
Clouds Clear
Heat Index 79 °F
Dew Point 63 °F
Humidity 61%
Rainfall in
Snow Depth Not available.
6:10 AM 8:18 PM
Waning Crescent, 19% visible
METAR KPAO 291847Z 36008KT 10SM SKC 22/17 A2985
Pressure 29.85 in
Visibility 10.0 miles
Clouds Clear
Heat Index 79 °F
Dew Point 63 °F
Humidity 61%
Rainfall in
Snow Depth Not available.
6:10 AM 8:18 PM
Waning Crescent, 19% visible
METAR KPAO 291847Z 36008KT 10SM SKC 22/17 A2985

10-Day Weather Forecast

Almanac

Astronomy

Jul. 29, 2016 Rise Set
Actual Time
Civil Twilight
Nautical Twilight
Astronomical Twilight
Moon
Length of Visible Light
Length of Day
Tomorrow will be .
, % of the Moon is Illuminated

Today's Extremes

State Highs State Lows

Community

WunderPhotos

Upload Photos

1,928,399 photos uploaded!

WunderBlog® & News

Nearby

Air Quality

  Air Quality AQ Index Pollutant
Not available.

Snow Depth

Station Depth Elevation

Earthquake Activity

City Distance Mag. Time & Date
Minimum magnitude displayed is 2.5.

Coastal Water Temperatures

Place Temperature

Stations

Nearby Weather Stations

Station Location Temp. Windchill Dew Point Humidity Wind Precip. Elev Updated Type
                   

Watches & Warnings

There are currently no watches in effect.